createdAt,value
2019-02-18T00:02:50.385Z,29
2019-02-18T00:05:56.323Z,29
2019-02-18T00:09:02.210Z,29.1
2019-02-18T00:12:08.249Z,29.1
2019-02-18T00:15:14.236Z,29.1
2019-02-18T00:18:20.166Z,29.2
2019-02-18T00:21:26.125Z,29.2
2019-02-18T00:24:32.083Z,29.1
2019-02-18T00:27:37.962Z,29.1
2019-02-18T00:30:43.999Z,29.1
2019-02-18T00:33:49.874Z,29.1
2019-02-18T00:36:55.817Z,29.2
2019-02-18T00:40:01.702Z,29.3
2019-02-18T00:43:07.637Z,29.2
2019-02-18T00:46:13.705Z,29.2
2019-02-18T00:49:19.577Z,29.2
2019-02-18T00:52:25.641Z,29.1
2019-02-18T00:55:31.575Z,29.2
2019-02-18T00:58:37.651Z,29.2
2019-02-18T01:01:45.662Z,29.2
2019-02-18T01:04:51.610Z,29.1
2019-02-18T01:07:57.634Z,28.8
2019-02-18T01:11:03.627Z,28.5
2019-02-18T01:14:09.504Z,28.4
2019-02-18T01:17:15.448Z,28.4
2019-02-18T01:20:21.412Z,28.5
2019-02-18T01:23:27.591Z,28.4
2019-02-18T01:26:33.483Z,28.4
2019-02-18T01:29:39.490Z,28.5
2019-02-18T01:32:45.560Z,28.4
2019-02-18T01:35:51.624Z,28.3
2019-02-18T01:38:57.572Z,28.3
2019-02-18T01:42:03.538Z,28.2
2019-02-18T01:45:09.412Z,28.2
2019-02-18T01:48:15.471Z,28.2
2019-02-18T01:51:21.456Z,28.1
2019-02-18T01:54:30.332Z,28.1
2019-02-18T01:57:36.309Z,28.1
2019-02-18T02:00:42.207Z,28.1
2019-02-18T02:03:48.052Z,28
2019-02-18T02:06:54.105Z,28
2019-02-18T02:10:00.042Z,27.9
2019-02-18T02:13:06.103Z,27.9
2019-02-18T02:16:12.064Z,27.8
2019-02-18T02:19:18.033Z,27.7
2019-02-18T02:22:24.085Z,27.6
2019-02-18T02:25:30.150Z,27.5
2019-02-18T02:28:36.103Z,27.5
2019-02-18T02:31:41.976Z,27.5
2019-02-18T02:34:48.027Z,27.4
2019-02-18T02:37:53.896Z,27.4
2019-02-18T02:41:11.827Z,27.3
2019-02-18T02:44:17.811Z,27.2
2019-02-18T02:47:27.000Z,27.2
2019-02-18T02:50:33.084Z,27.1
2019-02-18T02:53:39.141Z,27.1
2019-02-18T02:56:45.305Z,27.1
2019-02-18T02:59:51.198Z,27.1
2019-02-18T03:02:57.330Z,27
2019-02-18T03:06:03.294Z,27
2019-02-18T03:09:09.453Z,27
2019-02-18T03:12:15.413Z,27
2019-02-18T03:15:23.627Z,26.9
2019-02-18T03:18:29.704Z,26.8
2019-02-18T03:21:35.660Z,26.8
2019-02-18T03:24:41.612Z,26.8
2019-02-18T03:27:47.570Z,26.8
2019-02-18T03:30:53.767Z,26.7
2019-02-18T03:34:00.039Z,26.7
2019-02-18T03:37:06.268Z,26.7
2019-02-18T03:40:12.440Z,26.7
2019-02-18T03:43:18.395Z,26.7
2019-02-18T03:46:24.366Z,26.6
2019-02-18T03:49:30.313Z,26.6
2019-02-18T03:52:36.218Z,26.5
2019-02-18T03:55:42.158Z,26.4
2019-02-18T03:58:48.094Z,26.4
2019-02-18T04:01:54.041Z,26.3
2019-02-18T04:04:59.922Z,26.2
2019-02-18T04:08:06.014Z,26.1
2019-02-18T04:11:11.929Z,26.2
2019-02-18T04:14:17.993Z,26.2
2019-02-18T04:17:24.032Z,26.1
2019-02-18T04:20:30.015Z,26.2
2019-02-18T04:23:36.034Z,26.2
2019-02-18T04:26:41.932Z,26.1
2019-02-18T04:29:47.892Z,26.2
2019-02-18T04:32:56.818Z,26.2
2019-02-18T04:36:02.787Z,25.9
2019-02-18T04:39:08.851Z,25.9
2019-02-18T04:42:14.719Z,25.9
2019-02-18T04:45:20.655Z,25.9
2019-02-18T04:48:26.541Z,25.8
2019-02-18T04:51:32.576Z,25.8
2019-02-18T04:54:38.533Z,25.8
2019-02-18T04:57:44.562Z,25.9
2019-02-18T05:00:50.556Z,25.9
2019-02-18T05:03:56.437Z,25.7
2019-02-18T05:07:02.380Z,25.7
2019-02-18T05:10:08.253Z,25.7
2019-02-18T05:13:14.407Z,25.7
2019-02-18T05:16:20.468Z,25.7
2019-02-18T05:19:26.342Z,25.7
2019-02-18T05:22:35.362Z,25.6
2019-02-18T05:25:41.287Z,25.6
2019-02-18T05:28:47.267Z,25.5
2019-02-18T05:31:53.227Z,25.7
2019-02-18T05:34:59.185Z,25.5
2019-02-18T05:38:05.315Z,25.5
2019-02-18T05:41:11.314Z,25.6
2019-02-18T05:44:17.375Z,25.5
2019-02-18T05:47:23.251Z,25.5
2019-02-18T05:50:29.291Z,25.8
2019-02-18T05:53:35.274Z,27.8
2019-02-18T05:56:41.322Z,26
2019-02-18T05:59:47.373Z,26.1
2019-02-18T06:02:53.339Z,26
2019-02-18T06:05:59.362Z,25.9
2019-02-18T06:09:05.269Z,25.8
2019-02-18T06:12:14.499Z,26
2019-02-18T06:15:20.576Z,25.7
2019-02-18T06:18:26.531Z,26.1
2019-02-18T06:21:32.472Z,25.8
2019-02-18T06:24:38.658Z,25.9
2019-02-18T06:27:44.727Z,26.1
2019-02-18T06:30:55.575Z,26.2
2019-02-18T06:34:01.641Z,26.2
2019-02-18T06:37:07.721Z,27.1
2019-02-18T06:40:13.868Z,26.3
2019-02-18T06:43:22.430Z,26.2
2019-02-18T06:46:28.458Z,26.5
2019-02-18T06:49:34.421Z,26.1
2019-02-18T06:52:40.369Z,26.3
2019-02-18T06:55:46.443Z,26
2019-02-18T06:58:52.389Z,25.9
2019-02-18T07:01:58.268Z,26.1
2019-02-18T07:05:04.150Z,25.8
2019-02-18T07:08:10.269Z,26.1
2019-02-18T07:11:16.434Z,26.4
2019-02-18T07:14:22.393Z,26.1
2019-02-18T07:17:28.275Z,26.1
2019-02-18T07:20:34.315Z,26.2
2019-02-18T07:23:40.271Z,26.2
2019-02-18T07:26:46.148Z,26.3
2019-02-18T07:29:52.186Z,26.5
2019-02-18T07:32:58.336Z,26.7
2019-02-18T07:36:04.217Z,26.7
2019-02-18T07:39:10.092Z,26.7
2019-02-18T07:42:16.290Z,26.5
2019-02-18T07:45:22.506Z,26.1
2019-02-18T07:48:28.496Z,26.2
2019-02-18T07:51:34.732Z,26
2019-02-18T07:54:40.730Z,25.9
2019-02-18T07:57:46.853Z,26.4
2019-02-18T08:00:52.799Z,26.4
2019-02-18T08:03:58.794Z,26.1
2019-02-18T08:07:04.866Z,26.1
2019-02-18T08:10:13.025Z,26.1
2019-02-18T08:13:19.111Z,26.3
2019-02-18T08:16:25.176Z,26.2
2019-02-18T08:19:31.246Z,26.3
2019-02-18T08:22:37.197Z,26.1
2019-02-18T08:25:43.077Z,25.9
2019-02-18T08:28:49.203Z,25.9
2019-02-18T08:31:56.203Z,26.3
2019-02-18T08:35:02.170Z,25.8
2019-02-18T08:38:08.119Z,25.3
2019-02-18T08:41:14.186Z,26
2019-02-18T08:44:20.144Z,25
2019-02-18T08:47:26.089Z,24.9
2019-02-18T08:50:32.167Z,24.6
2019-02-18T08:53:38.048Z,24.6
2019-02-18T08:56:49.218Z,23.9
2019-02-18T08:59:55.270Z,24.4
2019-02-18T09:03:01.344Z,24.8
2019-02-18T09:06:07.504Z,24.7
2019-02-18T09:09:13.467Z,24.6
2019-02-18T09:12:19.632Z,23.9
2019-02-18T09:15:25.703Z,24.2
2019-02-18T09:18:31.855Z,24.1
2019-02-18T09:21:37.741Z,24.2
2019-02-18T09:24:43.676Z,24.4
2019-02-18T09:27:49.705Z,24.3
2019-02-18T09:30:55.832Z,24.2
2019-02-18T09:34:01.765Z,24.2
2019-02-18T09:37:09.849Z,24.1
2019-02-18T09:40:16.065Z,24
2019-02-18T09:43:23.125Z,24.1
2019-02-18T09:46:29.185Z,24.1
2019-02-18T09:49:35.264Z,24
2019-02-18T09:52:41.417Z,24.1
2019-02-18T09:55:47.586Z,24.3
2019-02-18T09:58:53.871Z,24.2
2019-02-18T10:01:59.780Z,24.2
2019-02-18T10:05:05.779Z,24.3
2019-02-18T10:08:11.942Z,24.2
2019-02-18T10:11:17.899Z,24.1
2019-02-18T10:14:23.849Z,24
2019-02-18T10:17:30.018Z,23.8
2019-02-18T10:20:35.973Z,23.9
2019-02-18T10:23:42.055Z,23.8
2019-02-18T10:26:47.986Z,23.9
2019-02-18T10:29:54.061Z,24.3
2019-02-18T10:32:59.998Z,24
2019-02-18T10:36:05.978Z,24.1
2019-02-18T10:39:12.242Z,24
2019-02-18T10:42:19.227Z,23.9
2019-02-18T10:45:25.205Z,23.9
2019-02-18T10:48:31.346Z,24
2019-02-18T10:51:37.939Z,23.9
2019-02-18T10:54:45.939Z,24.1
2019-02-18T10:57:54.452Z,24
2019-02-18T11:01:00.341Z,24.1
2019-02-18T11:04:07.911Z,24
2019-02-18T11:07:13.910Z,24.1
2019-02-18T11:10:19.951Z,23.9
2019-02-18T11:13:26.207Z,24.1
2019-02-18T11:16:32.107Z,24.2
2019-02-18T11:19:38.129Z,24
2019-02-18T11:22:44.075Z,24.3
2019-02-18T11:25:49.989Z,25.6
2019-02-18T11:28:56.004Z,24.3
2019-02-18T11:32:03.904Z,24.4
2019-02-18T11:35:10.070Z,24.4
2019-02-18T11:38:16.333Z,24.2
2019-02-18T11:41:28.252Z,24.1
2019-02-18T11:44:36.446Z,24.4
2019-02-18T11:47:42.718Z,24.1
2019-02-18T11:50:48.684Z,24.3
2019-02-18T11:53:54.828Z,24.5
2019-02-18T11:57:00.961Z,24.2
2019-02-18T12:00:07.100Z,24.1
2019-02-18T12:03:13.448Z,24
2019-02-18T12:06:22.000Z,23.9
2019-02-18T12:09:28.136Z,23.9
2019-02-18T12:12:34.493Z,23.9
2019-02-18T12:15:42.317Z,24
2019-02-18T12:18:48.606Z,24.1
2019-02-18T12:21:54.823Z,24
2019-02-18T12:25:00.998Z,24.1
2019-02-18T12:28:07.190Z,25.8
2019-02-18T12:31:13.427Z,25.3
2019-02-18T12:34:20.992Z,24.4
2019-02-18T12:37:30.853Z,24.8
2019-02-18T12:40:37.755Z,24.7
2019-02-18T12:43:43.719Z,25.2
2019-02-18T12:46:49.929Z,25.7
2019-02-18T12:49:56.267Z,24.9
2019-02-18T12:53:02.542Z,24.8
2019-02-18T12:56:09.201Z,25.2
2019-02-18T12:59:16.384Z,24.4
2019-02-18T13:02:27.054Z,24.7
2019-02-18T13:05:33.430Z,24.4
2019-02-18T13:08:44.529Z,25.4
2019-02-18T13:11:59.687Z,24.6
2019-02-18T13:15:06.022Z,24.6
2019-02-18T13:18:13.380Z,24.8
2019-02-18T13:21:20.846Z,24.9
2019-02-18T13:24:26.996Z,24.7
2019-02-18T13:27:33.264Z,25
2019-02-18T13:30:41.799Z,24.5
2019-02-18T13:33:47.867Z,24.6
2019-02-18T13:36:53.812Z,24.6
2019-02-18T13:39:59.874Z,24.7
2019-02-18T13:43:05.910Z,24.5
2019-02-18T13:46:12.303Z,24.3
2019-02-18T13:49:18.481Z,24.2
2019-02-18T13:52:24.446Z,24.2
2019-02-18T13:55:32.585Z,24.2
2019-02-18T13:58:38.828Z,24
2019-02-18T14:01:46.011Z,24
2019-02-18T14:04:52.168Z,23.9
2019-02-18T14:07:58.603Z,23.9
2019-02-18T14:11:12.692Z,24.2
2019-02-18T14:14:20.795Z,24
2019-02-18T14:17:26.870Z,23.9
2019-02-18T14:20:32.779Z,23.8
2019-02-18T14:23:38.886Z,24
2019-02-18T14:26:44.844Z,23.9
2019-02-18T14:29:50.910Z,23.9
2019-02-18T14:32:57.172Z,24.4
2019-02-18T14:36:03.863Z,24.5
2019-02-18T14:39:10.115Z,24
2019-02-18T14:42:24.293Z,23.8
2019-02-18T14:45:30.426Z,23.9
2019-02-18T14:48:36.509Z,24
2019-02-18T14:51:42.660Z,23.8
2019-02-18T14:54:48.625Z,23.9
2019-02-18T14:57:56.109Z,23.6
2019-02-18T15:01:02.175Z,23.6
2019-02-18T15:04:08.643Z,23.4
2019-02-18T15:07:15.547Z,23.9
2019-02-18T15:10:21.601Z,23.5
2019-02-18T15:13:27.669Z,23.6
2019-02-18T15:16:34.162Z,23.4
2019-02-18T15:19:44.915Z,23.9
2019-02-18T15:22:52.194Z,23.5
2019-02-18T15:25:58.358Z,24.5
2019-02-18T15:29:04.518Z,23.4
2019-02-18T15:32:10.578Z,23.5
2019-02-18T15:35:16.643Z,23.5
2019-02-18T15:38:22.716Z,23.5
2019-02-18T15:41:28.780Z,23.5
2019-02-18T15:44:34.837Z,23.9
2019-02-18T15:47:41.510Z,24.4
2019-02-18T15:50:49.105Z,23.6
2019-02-18T15:53:55.081Z,23.2
2019-02-18T15:57:01.240Z,23.1
2019-02-18T16:00:07.384Z,23.2
2019-02-18T16:03:13.558Z,23.1
2019-02-18T16:06:20.037Z,23.1
2019-02-18T16:09:25.989Z,23.2
2019-02-18T16:12:33.687Z,23.2
2019-02-18T16:15:39.672Z,23.2
2019-02-18T16:18:45.911Z,23.1
2019-02-18T16:21:52.389Z,23.1
2019-02-18T16:24:58.451Z,23
2019-02-18T16:28:04.719Z,23.2
2019-02-18T16:31:10.775Z,23.1
2019-02-18T16:34:16.839Z,23.3
2019-02-18T16:37:23.004Z,23.3
2019-02-18T16:40:29.065Z,23.1
2019-02-18T16:43:35.128Z,23.1
2019-02-18T16:46:41.496Z,23.2
2019-02-18T16:49:49.607Z,22.9
2019-02-18T16:52:55.570Z,22.9
2019-02-18T16:56:01.634Z,22.8
2019-02-18T16:59:07.691Z,22.8
2019-02-18T17:02:13.752Z,22.8
2019-02-18T17:05:21.578Z,22.8
2019-02-18T17:08:27.723Z,22.8
2019-02-18T17:11:33.829Z,22.7
2019-02-18T17:14:40.090Z,22.7
2019-02-18T17:17:47.456Z,22.7
2019-02-18T17:20:53.383Z,22.6
2019-02-18T17:23:59.371Z,22.6
2019-02-18T17:27:05.432Z,22.6
2019-02-18T17:30:11.396Z,22.6
2019-02-18T17:33:17.474Z,22.5
2019-02-18T17:36:25.360Z,22.5
2019-02-18T17:39:31.521Z,22.5
2019-02-18T17:42:37.483Z,22.5
2019-02-18T17:45:46.202Z,22.4
2019-02-18T17:48:52.371Z,22.4
2019-02-18T17:51:58.533Z,22.4
2019-02-18T17:55:04.600Z,22.4
2019-02-18T17:58:11.377Z,22.3
2019-02-18T18:01:17.444Z,22.4
2019-02-18T18:04:23.706Z,22.4
2019-02-18T18:07:30.893Z,22.4
2019-02-18T18:10:39.718Z,22.5
2019-02-18T18:13:45.684Z,22.6
2019-02-18T18:16:51.646Z,22.7
2019-02-18T18:19:57.605Z,22.7
2019-02-18T18:23:03.659Z,22.7
2019-02-18T18:26:09.542Z,22.6
2019-02-18T18:29:17.429Z,22.6
2019-02-18T18:32:23.588Z,22.7
2019-02-18T18:35:29.554Z,22.7
2019-02-18T18:38:35.513Z,22.6
2019-02-18T18:41:41.575Z,22.5
2019-02-18T18:44:47.457Z,22.5
2019-02-18T18:47:53.624Z,22.5
2019-02-18T18:51:03.655Z,22.5
2019-02-18T18:54:09.715Z,22.6
2019-02-18T18:57:15.677Z,22.5
2019-02-18T19:00:21.644Z,22.5
2019-02-18T19:03:27.700Z,22.5
2019-02-18T19:06:35.501Z,22.5
2019-02-18T19:09:41.883Z,22.5
2019-02-18T19:12:49.470Z,22.6
2019-02-18T19:15:55.433Z,22.6
2019-02-18T19:19:02.864Z,22.5
2019-02-18T19:22:08.993Z,22.5
2019-02-18T19:25:14.952Z,22.6
2019-02-18T19:28:21.009Z,22.6
2019-02-18T19:31:27.377Z,22.7
2019-02-18T19:34:34.565Z,22.6
2019-02-18T19:37:40.453Z,22.6
2019-02-18T19:40:46.361Z,22.7
2019-02-18T19:43:52.447Z,22.7
2019-02-18T19:46:58.407Z,22.8
2019-02-18T19:50:04.470Z,22.8
2019-02-18T19:53:10.355Z,22.8
2019-02-18T19:56:18.126Z,22.8
2019-02-18T19:59:24.094Z,22.8
2019-02-18T20:02:30.069Z,22.8
2019-02-18T20:05:36.323Z,22.8
2019-02-18T20:08:42.194Z,22.9
2019-02-18T20:11:48.235Z,22.9
2019-02-18T20:14:54.200Z,22.8
2019-02-18T20:18:02.267Z,22.9
2019-02-18T20:21:08.267Z,22.9
2019-02-18T20:24:14.153Z,22.9
2019-02-18T20:27:20.288Z,22.9
2019-02-18T20:30:26.265Z,22.9
2019-02-18T20:33:34.057Z,22.9
2019-02-18T20:36:40.018Z,22.9
2019-02-18T20:39:48.897Z,23
2019-02-18T20:42:55.009Z,22.9
2019-02-18T20:46:00.912Z,22.9
2019-02-18T20:49:06.932Z,23
2019-02-18T20:52:12.908Z,23
2019-02-18T20:55:18.875Z,23
2019-02-18T20:58:24.833Z,23
2019-02-18T21:01:31.280Z,23
2019-02-18T21:04:37.265Z,23
2019-02-18T21:07:43.517Z,23.1
2019-02-18T21:10:50.485Z,23.1
2019-02-18T21:13:56.448Z,23.1
2019-02-18T21:17:02.513Z,23.2
2019-02-18T21:20:08.389Z,23.3
2019-02-18T21:23:14.541Z,23.4
2019-02-18T21:26:20.499Z,23.5
2019-02-18T21:29:26.489Z,23.7
2019-02-18T21:32:34.464Z,23.9
2019-02-18T21:35:42.272Z,24
2019-02-18T21:38:48.144Z,24.1
2019-02-18T21:41:56.950Z,24.3
2019-02-18T21:45:02.917Z,24.3
2019-02-18T21:48:09.692Z,24.4
2019-02-18T21:51:16.057Z,24.5
2019-02-18T21:54:23.642Z,24.5
2019-02-18T21:57:29.626Z,24.6
2019-02-18T22:00:35.683Z,24.6
2019-02-18T22:03:41.663Z,24.7
2019-02-18T22:06:47.705Z,24.8
2019-02-18T22:09:53.601Z,24.8
2019-02-18T22:12:59.622Z,24.8
2019-02-18T22:16:05.600Z,24.9
2019-02-18T22:19:11.541Z,24.9
2019-02-18T22:22:17.498Z,25
2019-02-18T22:25:24.907Z,25.1
2019-02-18T22:28:30.960Z,25.2
2019-02-18T22:31:37.439Z,25.2
2019-02-18T22:34:44.932Z,25.2
2019-02-18T22:37:50.999Z,25.2
2019-02-18T22:40:56.910Z,25.3
2019-02-18T22:44:02.905Z,25.4
2019-02-18T22:47:08.780Z,25.4
2019-02-18T22:50:14.732Z,25.5
2019-02-18T22:53:20.690Z,25.6
2019-02-18T22:56:26.648Z,25.6
2019-02-18T22:59:32.529Z,25.6
2019-02-18T23:02:38.671Z,25.6
2019-02-18T23:05:45.465Z,25.7
2019-02-18T23:08:51.369Z,25.7
2019-02-18T23:11:57.676Z,25.8
2019-02-18T23:15:05.378Z,25.9
2019-02-18T23:18:11.336Z,25.9
2019-02-18T23:21:17.285Z,25.9
2019-02-18T23:24:26.007Z,25.9
2019-02-18T23:27:32.080Z,25.9
2019-02-18T23:30:38.043Z,26
2019-02-18T23:33:44.104Z,26
2019-02-18T23:36:50.066Z,26
2019-02-18T23:39:56.047Z,26.1
2019-02-18T23:43:02.095Z,26.1
2019-02-18T23:46:07.967Z,26.2
2019-02-18T23:49:14.007Z,26.1
2019-02-18T23:52:19.986Z,26.2
2019-02-18T23:55:25.903Z,26.2
2019-02-18T23:58:31.781Z,26.4
